createdAt,value
2022-08-25T00:00:35.371Z,5.55
2022-08-25T00:05:37.274Z,3.72
2022-08-25T00:10:40.411Z,3.83
2022-08-25T00:15:41.892Z,4.03
2022-08-25T00:20:43.349Z,4.25
2022-08-25T00:25:51.172Z,5.80
2022-08-25T00:30:52.742Z,3.00
2022-08-25T00:35:56.323Z,2.83
2022-08-25T00:41:06.940Z,2.78
2022-08-25T00:46:10.076Z,3.30
2022-08-25T00:51:16.915Z,6.38
2022-08-25T00:56:18.821Z,2.95
2022-08-25T01:01:22.764Z,3.25
2022-08-25T01:06:24.659Z,3.35
2022-08-25T01:11:27.789Z,3.63
2022-08-25T01:21:37.689Z,3.47
2022-08-25T01:26:39.042Z,3.85
2022-08-25T01:31:41.651Z,8.75
2022-08-25T01:36:44.261Z,8.00
2022-08-25T01:41:48.699Z,4.30
2022-08-25T01:46:53.387Z,3.33
2022-08-25T01:52:21.825Z,6.07
2022-08-25T01:57:23.825Z,3.58
2022-08-25T02:02:26.287Z,3.42
2022-08-25T02:07:28.004Z,3.90
2022-08-25T02:12:32.030Z,4.30
2022-08-25T02:17:36.563Z,6.43
2022-08-25T02:22:37.928Z,3.90
2022-08-25T02:27:39.396Z,4.97
2022-08-25T02:32:41.505Z,3.78
2022-08-25T02:37:42.990Z,6.43
2022-08-25T02:42:44.705Z,6.82
2022-08-25T02:47:46.183Z,6.28
2022-08-25T02:52:50.424Z,5.68
2022-08-25T02:57:51.823Z,3.65
2022-08-25T03:02:53.168Z,5.63
2022-08-25T03:07:54.518Z,5.45
2022-08-25T03:12:55.899Z,4.15
2022-08-25T03:17:57.753Z,3.55
2022-08-25T03:23:03.247Z,4.32
2022-08-25T03:28:06.430Z,5.28
2022-08-25T03:33:08.479Z,3.75
2022-08-25T03:38:09.901Z,4.88
2022-08-25T03:43:11.253Z,4.45
2022-08-25T03:48:12.878Z,4.65
2022-08-25T03:53:14.356Z,5.03
2022-08-25T03:58:15.808Z,6.05
2022-08-25T04:03:18.112Z,5.18
2022-08-25T04:08:19.588Z,4.65
2022-08-25T04:13:21.469Z,5.13
2022-08-25T04:18:22.901Z,3.92
2022-08-25T04:23:24.361Z,4.88
2022-08-25T04:28:25.772Z,6.57
2022-08-25T04:33:27.192Z,5.40
2022-08-25T04:38:28.641Z,5.50
2022-08-25T04:43:32.002Z,6.50
2022-08-25T04:48:33.975Z,9.60
2022-08-25T04:53:36.695Z,5.72
2022-08-25T04:58:38.974Z,6.32
2022-08-25T05:03:40.327Z,5.45
2022-08-25T05:08:41.747Z,5.68
2022-08-25T05:13:51.646Z,6.47
2022-08-25T05:18:54.256Z,6.60
2022-08-25T05:24:00.293Z,6.07
2022-08-25T05:29:04.542Z,6.15
2022-08-25T05:34:07.860Z,6.38
2022-08-25T05:44:12.537Z,7.03
2022-08-25T05:49:13.895Z,7.68
2022-08-25T05:54:15.874Z,9.82
2022-08-25T05:59:17.171Z,6.53
2022-08-25T06:04:20.215Z,7.78
2022-08-25T06:09:22.822Z,8.73
2022-08-25T06:14:24.771Z,7.45
2022-08-25T06:19:27.284Z,10.10
2022-08-25T06:24:29.350Z,7.67
2022-08-25T06:29:30.681Z,8.05
2022-08-25T06:34:32.701Z,7.93
2022-08-25T06:39:34.428Z,8.00
2022-08-25T06:44:36.285Z,7.00
2022-08-25T06:49:37.719Z,7.75
2022-08-25T06:54:39.464Z,7.88
2022-08-25T06:59:41.628Z,6.65
2022-08-25T07:04:43.200Z,8.20
2022-08-25T07:09:44.635Z,7.70
2022-08-25T07:14:58.101Z,7.60
2022-08-25T07:20:05.477Z,7.45
2022-08-25T07:25:07.940Z,6.78
2022-08-25T07:30:09.748Z,9.15
2022-08-25T07:35:15.940Z,7.00
2022-08-25T07:40:24.422Z,7.97
2022-08-25T07:45:30.549Z,6.03
2022-08-25T07:50:32.883Z,7.65
2022-08-25T07:55:36.455Z,7.57
2022-08-25T08:00:39.578Z,7.30
2022-08-25T08:05:43.765Z,7.97
2022-08-25T08:11:03.237Z,6.40
2022-08-25T08:16:15.074Z,7.47
2022-08-25T08:21:28.490Z,6.95
2022-08-25T08:26:55.441Z,7.32
2022-08-25T08:31:53.345Z,7.72
2022-08-25T08:36:54.877Z,7.40
2022-08-25T08:42:19.729Z,7.75
2022-08-25T08:47:28.130Z,7.95
2022-08-25T08:52:46.056Z,6.78
2022-08-25T08:57:52.672Z,5.65
2022-08-25T09:03:06.900Z,5.57
2022-08-25T09:13:19.223Z,8.38
2022-08-25T09:18:41.263Z,6.10
2022-08-25T09:24:37.147Z,6.20
2022-08-25T09:29:49.569Z,6.50
2022-08-25T09:34:54.984Z,5.05
2022-08-25T09:39:59.123Z,5.43
2022-08-25T09:45:00.681Z,7.03
2022-08-25T09:50:05.669Z,5.93
2022-08-25T09:55:16.114Z,6.68
2022-08-25T10:00:22.711Z,5.72
2022-08-25T10:05:26.568Z,6.72
2022-08-25T10:10:32.346Z,6.57
2022-08-25T10:15:37.526Z,5.68
2022-08-25T10:20:38.946Z,5.65
2022-08-25T10:25:57.731Z,5.38
2022-08-25T10:31:10.716Z,5.30
2022-08-25T10:36:23.365Z,4.95
2022-08-25T10:41:41.165Z,4.90
2022-08-25T10:46:56.556Z,5.57
2022-08-25T10:52:05.240Z,4.43
2022-08-25T10:57:21.303Z,4.90
2022-08-25T11:02:47.979Z,4.30
2022-08-25T11:07:51.541Z,4.25
2022-08-25T11:12:57.347Z,3.90
2022-08-25T11:18:14.654Z,4.47
2022-08-25T11:23:32.245Z,4.65
2022-08-25T11:29:12.132Z,5.37
2022-08-25T11:34:15.168Z,3.65
2022-08-25T11:39:54.014Z,3.50
2022-08-25T11:45:29.022Z,3.38
2022-08-25T11:50:35.004Z,2.83
2022-08-25T11:55:36.666Z,3.95
2022-08-25T12:00:42.573Z,4.80
2022-08-25T12:05:46.855Z,3.38
2022-08-25T12:11:11.256Z,3.70
2022-08-25T12:16:34.852Z,3.35
2022-08-25T12:21:36.527Z,5.47
2022-08-25T12:26:58.625Z,3.20
2022-08-25T12:32:41.738Z,4.43
2022-08-25T12:38:00.395Z,3.50
2022-08-25T12:43:24.983Z,4.75
2022-08-25T12:48:27.967Z,4.20
2022-08-25T12:53:38.558Z,3.63
2022-08-25T12:59:01.017Z,3.63
2022-08-25T13:04:09.380Z,3.97
2022-08-25T13:09:53.652Z,5.40
2022-08-25T13:14:57.393Z,3.50
2022-08-25T13:20:25.793Z,3.13
2022-08-25T13:25:32.209Z,4.53
2022-08-25T13:30:36.304Z,3.58
2022-08-25T13:35:37.638Z,4.15
2022-08-25T13:40:39.185Z,3.63
2022-08-25T13:45:47.195Z,4.05
2022-08-25T13:50:52.054Z,4.18
2022-08-25T13:55:58.626Z,4.13
2022-08-25T14:01:23.679Z,3.97
2022-08-25T14:06:37.448Z,4.78
2022-08-25T14:11:43.966Z,4.20
2022-08-25T14:16:54.371Z,3.75
2022-08-25T14:22:02.018Z,3.38
2022-08-25T14:27:04.698Z,4.32
2022-08-25T14:32:06.373Z,3.25
2022-08-25T14:37:16.697Z,3.10
2022-08-25T14:42:17.998Z,4.38
2022-08-25T14:52:27.294Z,4.60
2022-08-25T14:57:28.795Z,3.88
2022-08-25T15:02:32.711Z,5.20
2022-08-25T15:07:55.032Z,4.07
2022-08-25T15:12:56.418Z,4.25
2022-08-25T15:18:01.321Z,5.50
2022-08-25T15:23:03.074Z,4.72
2022-08-25T15:28:07.130Z,3.92
2022-08-25T15:33:11.546Z,3.60
2022-08-25T15:38:13.201Z,4.22
2022-08-25T15:48:17.878Z,5.03
2022-08-25T15:53:21.222Z,4.13
2022-08-25T15:58:23.981Z,3.78
2022-08-25T16:08:26.672Z,3.10
2022-08-25T16:13:27.985Z,4.38
2022-08-25T16:18:29.563Z,3.30
2022-08-25T16:23:30.864Z,4.57
2022-08-25T16:28:36.897Z,4.28
2022-08-25T16:33:38.289Z,2.97
2022-08-25T16:38:41.446Z,3.03
2022-08-25T16:43:43.275Z,2.92
2022-08-25T16:48:44.631Z,4.80
2022-08-25T16:54:05.326Z,3.40
2022-08-25T16:59:09.962Z,3.30
2022-08-25T17:04:12.136Z,3.13
2022-08-25T17:09:19.302Z,3.20
2022-08-25T17:14:24.717Z,4.18
2022-08-25T17:19:26.059Z,4.95
2022-08-25T17:24:29.455Z,3.67
2022-08-25T17:29:34.832Z,4.38
2022-08-25T17:34:36.521Z,3.53
2022-08-25T17:39:38.865Z,3.90
2022-08-25T17:44:40.378Z,2.70
2022-08-25T17:49:41.680Z,3.65
2022-08-25T17:54:43.037Z,2.90
2022-08-25T17:59:45.404Z,2.83
2022-08-25T18:04:46.714Z,2.75
2022-08-25T18:09:48.156Z,4.20
2022-08-25T18:14:49.926Z,3.67
2022-08-25T18:19:51.564Z,3.83
2022-08-25T18:24:52.874Z,5.97
2022-08-25T18:29:57.060Z,3.58
2022-08-25T18:34:58.357Z,3.45
2022-08-25T18:40:18.220Z,4.78
2022-08-25T18:45:23.866Z,3.20
2022-08-25T18:50:28.605Z,5.88
2022-08-25T18:55:29.966Z,3.67
2022-08-25T19:00:33.851Z,4.43
2022-08-25T19:05:37.942Z,5.00
2022-08-25T19:10:40.118Z,3.47
2022-08-25T19:15:44.946Z,5.25
2022-08-25T19:20:46.578Z,6.72
2022-08-25T19:25:48.066Z,4.93
2022-08-25T19:30:49.838Z,4.05
2022-08-25T19:35:52.854Z,4.43
2022-08-25T19:40:54.431Z,4.10
2022-08-25T19:45:55.753Z,5.23
2022-08-25T19:56:01.465Z,5.30
2022-08-25T20:01:04.076Z,5.10
2022-08-25T20:06:05.543Z,4.50
2022-08-25T20:11:06.888Z,4.88
2022-08-25T20:16:08.279Z,3.42
2022-08-25T20:21:09.673Z,4.72
2022-08-25T20:26:11.601Z,5.63
2022-08-25T20:31:13.175Z,4.95
2022-08-25T20:36:16.018Z,5.60
2022-08-25T20:41:17.320Z,3.63
2022-08-25T20:46:19.933Z,3.80
2022-08-25T20:51:23.506Z,4.37
2022-08-25T20:56:25.284Z,3.88
2022-08-25T21:01:37.768Z,2.72
2022-08-25T21:06:41.478Z,4.93
2022-08-25T21:11:43.909Z,4.03
2022-08-25T21:16:47.086Z,3.33
2022-08-25T21:21:50.243Z,3.40
2022-08-25T21:26:54.801Z,6.00
2022-08-25T21:31:58.541Z,2.92
2022-08-25T21:37:00.182Z,3.13
2022-08-25T21:42:01.851Z,3.63
2022-08-25T21:47:04.083Z,3.90
2022-08-25T21:52:06.310Z,3.43
2022-08-25T21:57:07.760Z,3.63
2022-08-25T22:02:11.158Z,3.97
2022-08-25T22:07:13.776Z,4.32
2022-08-25T22:12:15.107Z,6.63
2022-08-25T22:17:21.098Z,6.03
2022-08-25T22:22:22.712Z,4.28
2022-08-25T22:27:25.373Z,3.60
2022-08-25T22:32:26.694Z,3.90
2022-08-25T22:37:28.022Z,5.97
2022-08-25T22:42:31.725Z,4.05
2022-08-25T22:47:33.661Z,6.13
2022-08-25T22:52:35.272Z,6.63
2022-08-25T22:57:37.021Z,4.72
2022-08-25T23:02:41.415Z,5.32
2022-08-25T23:07:42.845Z,4.40
2022-08-25T23:12:44.278Z,7.40
2022-08-25T23:17:45.754Z,3.58
2022-08-25T23:22:47.328Z,5.38
2022-08-25T23:27:51.978Z,5.93
2022-08-25T23:32:53.350Z,5.85
2022-08-25T23:37:55.118Z,5.60
2022-08-25T23:42:56.432Z,6.75
2022-08-25T23:47:57.728Z,4.97
2022-08-25T23:52:59.213Z,4.10
2022-08-25T23:58:00.595Z,3.67
